Aeroporto :
LOGIN :

Iscrizione | Disclaimer

   EN    FR    IT 

 










Sommario :    VFR   VFR Marginale   IFR   IFR Intensivo   IFR Molto Intensivo
Visibilità : 
Base nubi : 
>= 8 km
>= 3000ft
5 / 8 km
1000 / 3000 ft
1500m / 5 km
500 / 1000 ft
800 / 1500m
200 / 500 ft
< 800m
< 200 ft
Simboli :   Temporali  Nebbia  Neve Forte  Precipitazioni Forti  Vento > 20 kt
SIGMETs :   Varie  Temporali  Ghiacco  Turbolenza  Onda orograficha  Ceneri Vulcaniche






- Altitudine del aeroporto : 287 ft


LFRL - Lanveoc Poulmic

ULTIMO METAR :
  • 180100Z AUTO 02003KT 350V080 9999 SCT028 BKN042 BKN049 07/05 Q1014

METARs OBSOLETI :
  • 180030Z AUTO 35003KT 310V030 9999 FEW042 BKN062 BKN072 06/05 Q1014
  • 180000Z AUTO 34002KT 9999 FEW043 BKN056 BKN068 06/04 Q1014
  • 172330Z AUTO 36002KT 9999 FEW029 SCT038 BKN058 06/04 Q1014
  • 172300Z AUTO VRB01KT 9999 FEW029 SCT036 OVC056 07/05 Q1014
  • 172230Z AUTO 36003KT CAVOK 07/06 Q1014

Previsioni scadute.



MetMap, La meteo Aeronautica in un colpo d'occhio ! - Copyright ORBIFLY Dicembre 2007 - Disclaimer

ORBIFLY MET'MAP TEAM :

Programmazione e sviluppo : Alexandra Zaïnal
Concezione e sviluppo : Baudouin d'Aumeries
Co-Programmazione e sviluppo : Marc-Olivier Méhu
Supporto tecnico e logistico : Manuel Goepfert
Aiuto per la traduzione : Arnaldo La Scala

Contatto : metmap@orbifly.com




FONTI E CREDITI :

   NOAA